Главная страница
METAR-TAF:

METAR-TAF

Аэропорты :

Брюссель, Бельгия

широта: 50-54N, долгота: 004-32E, высота над уровнем моря: 55 м

Текущие метеонаблюдения

Эта сводка был подготовлена 26 минут назад, в 11:20 UTC
Ветер 15 Узел от северно-северо-западный, изменяющийся между северо-западный и северный
Температура 16°C
Влажность 51%
Давление 1022 hPa
Видимость 10 км и более
Рассеянная облачность на высоте 4200 фута

METAR: EBBR 211120Z 33015KT 310V010 9999 BKN042 16/06 Q1022 NOSIG

Время: 13:46 (11:46 UTC)

Прогноз

Эта сводка был подготовлена 46 минут назад, в 11:00 UTC
Прогноз действительный с 21-го 12 UTC до 22-го 18 UTC
Ветер 15 Узел от северно-северо-западный
Видимость 10 км и более
небольшая облачность на высоте 3000 фута
Отдельные облака на высоте 5000 фута
временами
С 21-го 12 UTC до 21-го 18 UTC
Ветер 15 Узел от северно-северо-западный с порывами до 25 Узел

TAF: EBBR 211100Z 2112/2218 33015KT 9999 FEW030 SCT050 TEMPO 2112/2118 33015G25KT

Метеонаблюдения и прогнозы для более 4000 аэропортов (сводки METAR и TAF).

Имеющиеся станции представлены на карте желтыми и красными точками.

Чтобы увидеть название станции, наведите на нее мышь.

Затем щелкните, чтобы увидеть метеонаблюдения и метеопрогнозы.

Управление картой: чтобы увеличить масштаб, щелкните зеленые кнопки с черным крестиком; чтобы уменьшить масштаб, щелкните зеленую кнопку с тире; для просмотра соседних карт щелкайте зеленые стрелки.


METAR-TAF: